Terminal Aerodrome Forecast
Issued by NWS

Home | Current Version | Previous Version | Text Only | Print | Product List | Glossary On
Versions: 1 2 3 4 5 6 7 8 9 10 11 12 13 14 15 16 17
000
FTAK31 PAFA 182009 AAA
TAFAOR
TAF AMD
PAOR 182009Z 1820/1918 00000KT 1SM -SN BR BKN025 OVC035
     FM190000 31005KT 1 1/2SM -SN BR BKN015 OVC025
     FM191500 31005KT 3SM -SN BR SCT015 BKN025 OVC035=

USA.gov is the U.S. government's official web portal to all federal, state and local government web resources and services.